sensor_id;sensor_type;location;lat;lon;timestamp;P1;durP1;ratioP1;P2;durP2;ratioP2
48199;SDS011;33990;44.602;10.976;2023-02-20T00:01:35;11.70;;;10.05;;
48199;SDS011;33990;44.602;10.976;2023-02-20T00:04:03;11.82;;;10.63;;
48199;SDS011;33990;44.602;10.976;2023-02-20T00:06:30;12.00;;;10.07;;
48199;SDS011;33990;44.602;10.976;2023-02-20T00:08:58;12.13;;;9.88;;
48199;SDS011;33990;44.602;10.976;2023-02-20T00:11:25;12.95;;;10.75;;
48199;SDS011;33990;44.602;10.976;2023-02-20T00:13:52;11.35;;;9.55;;
48199;SDS011;33990;44.602;10.976;2023-02-20T00:16:19;11.05;;;9.60;;
48199;SDS011;33990;44.602;10.976;2023-02-20T00:18:47;12.18;;;9.63;;
48199;SDS011;33990;44.602;10.976;2023-02-20T00:21:14;11.48;;;10.27;;
48199;SDS011;33990;44.602;10.976;2023-02-20T00:23:42;11.65;;;10.15;;
48199;SDS011;33990;44.602;10.976;2023-02-20T00:26:10;16.50;;;11.43;;
48199;SDS011;33990;44.602;10.976;2023-02-20T00:28:41;11.48;;;9.95;;
48199;SDS011;33990;44.602;10.976;2023-02-20T00:31:11;11.13;;;8.85;;
48199;SDS011;33990;44.602;10.976;2023-02-20T00:33:41;11.02;;;9.77;;
48199;SDS011;33990;44.602;10.976;2023-02-20T00:36:13;11.25;;;9.13;;
48199;SDS011;33990;44.602;10.976;2023-02-20T00:38:42;11.52;;;9.32;;
48199;SDS011;33990;44.602;10.976;2023-02-20T00:41:11;13.70;;;10.63;;
48199;SDS011;33990;44.602;10.976;2023-02-20T00:43:40;13.52;;;10.15;;
48199;SDS011;33990;44.602;10.976;2023-02-20T00:46:12;11.38;;;10.05;;
48199;SDS011;33990;44.602;10.976;2023-02-20T00:48:41;13.82;;;10.73;;
48199;SDS011;33990;44.602;10.976;2023-02-20T00:51:47;11.20;;;9.95;;
48199;SDS011;33990;44.602;10.976;2023-02-20T00:54:15;12.60;;;10.52;;
48199;SDS011;33990;44.602;10.976;2023-02-20T00:56:44;11.93;;;10.00;;
48199;SDS011;33990;44.602;10.976;2023-02-20T00:59:11;13.05;;;10.68;;
48199;SDS011;33990;44.602;10.976;2023-02-20T01:01:39;10.93;;;9.65;;
48199;SDS011;33990;44.602;10.976;2023-02-20T01:04:07;11.43;;;10.00;;
48199;SDS011;33990;44.602;10.976;2023-02-20T01:06:34;11.93;;;9.93;;
48199;SDS011;33990;44.602;10.976;2023-02-20T01:09:01;12.70;;;9.68;;
48199;SDS011;33990;44.602;10.976;2023-02-20T01:11:29;12.38;;;9.55;;
48199;SDS011;33990;44.602;10.976;2023-02-20T01:13:58;10.73;;;9.50;;
48199;SDS011;33990;44.602;10.976;2023-02-20T01:16:25;13.25;;;10.88;;
48199;SDS011;33990;44.602;10.976;2023-02-20T01:18:53;13.25;;;10.57;;
48199;SDS011;33990;44.602;10.976;2023-02-20T01:21:20;12.57;;;10.60;;
48199;SDS011;33990;44.602;10.976;2023-02-20T01:23:48;15.07;;;10.90;;
48199;SDS011;33990;44.602;10.976;2023-02-20T01:26:15;12.23;;;9.68;;
48199;SDS011;33990;44.602;10.976;2023-02-20T01:28:43;13.30;;;10.35;;
48199;SDS011;33990;44.602;10.976;2023-02-20T01:31:16;12.45;;;11.25;;
48199;SDS011;33990;44.602;10.976;2023-02-20T01:33:44;12.23;;;10.23;;
48199;SDS011;33990;44.602;10.976;2023-02-20T01:36:12;11.15;;;9.65;;
48199;SDS011;33990;44.602;10.976;2023-02-20T01:38:41;12.10;;;10.82;;
48199;SDS011;33990;44.602;10.976;2023-02-20T01:41:09;10.55;;;9.00;;
48199;SDS011;33990;44.602;10.976;2023-02-20T01:43:37;11.80;;;10.02;;
48199;SDS011;33990;44.602;10.976;2023-02-20T01:49:06;11.70;;;10.13;;
48199;SDS011;33990;44.602;10.976;2023-02-20T01:51:39;11.60;;;10.05;;
48199;SDS011;33990;44.602;10.976;2023-02-20T01:54:10;12.05;;;10.82;;
48199;SDS011;33990;44.602;10.976;2023-02-20T01:56:41;12.20;;;10.55;;
48199;SDS011;33990;44.602;10.976;2023-02-20T01:59:11;11.18;;;9.55;;
48199;SDS011;33990;44.602;10.976;2023-02-20T02:01:40;11.65;;;10.45;;
48199;SDS011;33990;44.602;10.976;2023-02-20T02:04:08;11.10;;;10.00;;
48199;SDS011;33990;44.602;10.976;2023-02-20T02:06:39;10.98;;;9.88;;
48199;SDS011;33990;44.602;10.976;2023-02-20T02:09:33;12.73;;;10.63;;
48199;SDS011;33990;44.602;10.976;2023-02-20T02:12:03;12.60;;;10.57;;
48199;SDS011;33990;44.602;10.976;2023-02-20T02:14:31;10.82;;;9.73;;
48199;SDS011;33990;44.602;10.976;2023-02-20T02:25:55;12.40;;;11.10;;
48199;SDS011;33990;44.602;10.976;2023-02-20T02:48:21;13.27;;;11.07;;
48199;SDS011;33990;44.602;10.976;2023-02-20T02:50:56;14.18;;;11.80;;
48199;SDS011;33990;44.602;10.976;2023-02-20T02:53:29;13.52;;;11.02;;
48199;SDS011;33990;44.602;10.976;2023-02-20T02:55:57;12.80;;;11.10;;
48199;SDS011;33990;44.602;10.976;2023-02-20T02:58:44;12.60;;;10.65;;
48199;SDS011;33990;44.602;10.976;2023-02-20T03:01:12;12.15;;;10.45;;
48199;SDS011;33990;44.602;10.976;2023-02-20T03:03:48;13.68;;;11.55;;
48199;SDS011;33990;44.602;10.976;2023-02-20T03:06:20;12.85;;;11.23;;
48199;SDS011;33990;44.602;10.976;2023-02-20T03:09:01;11.80;;;10.60;;
48199;SDS011;33990;44.602;10.976;2023-02-20T03:11:29;12.05;;;10.77;;
48199;SDS011;33990;44.602;10.976;2023-02-20T03:14:07;11.85;;;10.40;;
48199;SDS011;33990;44.602;10.976;2023-02-20T03:17:14;11.70;;;10.38;;
48199;SDS011;33990;44.602;10.976;2023-02-20T03:24:50;11.88;;;9.80;;
48199;SDS011;33990;44.602;10.976;2023-02-20T03:30:13;11.65;;;10.27;;
48199;SDS011;33990;44.602;10.976;2023-02-20T03:32:42;11.60;;;10.40;;
48199;SDS011;33990;44.602;10.976;2023-02-20T03:35:33;13.57;;;10.98;;
48199;SDS011;33990;44.602;10.976;2023-02-20T03:38:21;12.93;;;11.50;;
48199;SDS011;33990;44.602;10.976;2023-02-20T03:41:10;13.90;;;12.05;;
48199;SDS011;33990;44.602;10.976;2023-02-20T03:44:02;11.02;;;9.63;;
48199;SDS011;33990;44.602;10.976;2023-02-20T03:46:32;12.45;;;11.10;;
48199;SDS011;33990;44.602;10.976;2023-02-20T03:49:10;11.73;;;10.32;;
48199;SDS011;33990;44.602;10.976;2023-02-20T03:51:44;12.40;;;11.10;;
48199;SDS011;33990;44.602;10.976;2023-02-20T03:54:38;12.10;;;10.50;;
48199;SDS011;33990;44.602;10.976;2023-02-20T03:57:51;12.68;;;11.07;;
48199;SDS011;33990;44.602;10.976;2023-02-20T04:02:41;12.82;;;10.30;;
48199;SDS011;33990;44.602;10.976;2023-02-20T04:05:14;11.47;;;10.27;;
48199;SDS011;33990;44.602;10.976;2023-02-20T04:07:55;12.02;;;10.55;;
48199;SDS011;33990;44.602;10.976;2023-02-20T04:10:42;12.68;;;11.20;;
48199;SDS011;33990;44.602;10.976;2023-02-20T04:13:32;12.48;;;10.82;;
48199;SDS011;33990;44.602;10.976;2023-02-20T04:16:00;12.52;;;11.30;;
48199;SDS011;33990;44.602;10.976;2023-02-20T04:18:28;11.98;;;10.77;;
48199;SDS011;33990;44.602;10.976;2023-02-20T04:20:57;13.40;;;11.32;;
48199;SDS011;33990;44.602;10.976;2023-02-20T04:23:33;12.13;;;10.48;;
48199;SDS011;33990;44.602;10.976;2023-02-20T04:26:11;12.93;;;10.85;;
48199;SDS011;33990;44.602;10.976;2023-02-20T04:28:46;12.35;;;10.90;;
48199;SDS011;33990;44.602;10.976;2023-02-20T04:31:16;12.30;;;10.00;;
48199;SDS011;33990;44.602;10.976;2023-02-20T04:33:46;11.00;;;9.73;;
48199;SDS011;33990;44.602;10.976;2023-02-20T04:36:23;13.40;;;11.75;;
48199;SDS011;33990;44.602;10.976;2023-02-20T04:38:53;15.00;;;11.40;;
48199;SDS011;33990;44.602;10.976;2023-02-20T04:41:24;12.63;;;11.32;;
48199;SDS011;33990;44.602;10.976;2023-02-20T04:43:52;11.07;;;9.82;;
48199;SDS011;33990;44.602;10.976;2023-02-20T04:46:44;13.73;;;11.43;;
48199;SDS011;33990;44.602;10.976;2023-02-20T04:49:12;15.23;;;10.35;;
48199;SDS011;33990;44.602;10.976;2023-02-20T04:51:42;13.93;;;11.27;;
48199;SDS011;33990;44.602;10.976;2023-02-20T04:54:09;14.25;;;11.30;;
48199;SDS011;33990;44.602;10.976;2023-02-20T04:56:37;11.70;;;10.50;;
48199;SDS011;33990;44.602;10.976;2023-02-20T04:59:06;11.75;;;10.55;;
48199;SDS011;33990;44.602;10.976;2023-02-20T05:01:33;12.85;;;10.82;;
48199;SDS011;33990;44.602;10.976;2023-02-20T05:04:00;12.00;;;10.00;;
48199;SDS011;33990;44.602;10.976;2023-02-20T05:06:28;12.25;;;10.80;;
48199;SDS011;33990;44.602;10.976;2023-02-20T05:08:55;12.98;;;11.05;;
48199;SDS011;33990;44.602;10.976;2023-02-20T05:11:23;12.23;;;10.93;;
48199;SDS011;33990;44.602;10.976;2023-02-20T05:13:50;12.20;;;10.90;;
48199;SDS011;33990;44.602;10.976;2023-02-20T05:16:17;13.18;;;10.75;;
48199;SDS011;33990;44.602;10.976;2023-02-20T05:18:45;13.32;;;12.02;;
48199;SDS011;33990;44.602;10.976;2023-02-20T05:21:13;11.70;;;10.50;;
48199;SDS011;33990;44.602;10.976;2023-02-20T05:23:59;12.70;;;11.20;;
48199;SDS011;33990;44.602;10.976;2023-02-20T05:26:27;11.48;;;10.27;;
48199;SDS011;33990;44.602;10.976;2023-02-20T05:28:54;11.27;;;10.18;;
48199;SDS011;33990;44.602;10.976;2023-02-20T05:31:21;17.63;;;11.80;;
48199;SDS011;33990;44.602;10.976;2023-02-20T05:33:48;13.20;;;10.82;;
48199;SDS011;33990;44.602;10.976;2023-02-20T05:36:16;11.98;;;10.25;;
48199;SDS011;33990;44.602;10.976;2023-02-20T05:38:43;12.05;;;10.60;;
48199;SDS011;33990;44.602;10.976;2023-02-20T05:41:15;12.95;;;11.57;;
48199;SDS011;33990;44.602;10.976;2023-02-20T05:43:42;12.55;;;11.00;;
48199;SDS011;33990;44.602;10.976;2023-02-20T05:46:10;12.98;;;10.82;;
48199;SDS011;33990;44.602;10.976;2023-02-20T05:48:39;13.65;;;11.82;;
48199;SDS011;33990;44.602;10.976;2023-02-20T05:51:06;14.07;;;11.48;;
48199;SDS011;33990;44.602;10.976;2023-02-20T05:53:33;14.70;;;11.27;;
48199;SDS011;33990;44.602;10.976;2023-02-20T05:56:02;11.98;;;10.60;;
48199;SDS011;33990;44.602;10.976;2023-02-20T05:58:29;13.85;;;10.50;;
48199;SDS011;33990;44.602;10.976;2023-02-20T06:00:57;11.43;;;10.32;;
48199;SDS011;33990;44.602;10.976;2023-02-20T06:03:24;11.95;;;10.43;;
48199;SDS011;33990;44.602;10.976;2023-02-20T06:05:52;12.20;;;11.00;;
48199;SDS011;33990;44.602;10.976;2023-02-20T06:08:22;14.77;;;11.43;;
48199;SDS011;33990;44.602;10.976;2023-02-20T06:10:49;13.25;;;11.85;;
48199;SDS011;33990;44.602;10.976;2023-02-20T06:13:16;14.02;;;11.50;;
48199;SDS011;33990;44.602;10.976;2023-02-20T06:15:44;14.98;;;11.77;;
48199;SDS011;33990;44.602;10.976;2023-02-20T06:18:11;12.40;;;11.00;;
48199;SDS011;33990;44.602;10.976;2023-02-20T06:20:38;11.30;;;10.10;;
48199;SDS011;33990;44.602;10.976;2023-02-20T06:23:05;12.00;;;10.80;;
48199;SDS011;33990;44.602;10.976;2023-02-20T06:25:33;11.73;;;10.50;;
48199;SDS011;33990;44.602;10.976;2023-02-20T06:28:00;12.13;;;10.88;;
48199;SDS011;33990;44.602;10.976;2023-02-20T06:30:28;13.30;;;10.45;;
48199;SDS011;33990;44.602;10.976;2023-02-20T06:32:55;14.68;;;10.90;;
48199;SDS011;33990;44.602;10.976;2023-02-20T06:35:22;12.27;;;10.93;;
48199;SDS011;33990;44.602;10.976;2023-02-20T06:37:50;13.35;;;10.52;;
48199;SDS011;33990;44.602;10.976;2023-02-20T06:40:17;12.63;;;10.23;;
48199;SDS011;33990;44.602;10.976;2023-02-20T06:42:44;11.32;;;10.13;;
48199;SDS011;33990;44.602;10.976;2023-02-20T06:45:12;12.30;;;10.77;;
48199;SDS011;33990;44.602;10.976;2023-02-20T06:47:41;12.52;;;11.18;;
48199;SDS011;33990;44.602;10.976;2023-02-20T06:50:08;12.85;;;10.55;;
48199;SDS011;33990;44.602;10.976;2023-02-20T06:52:36;12.38;;;10.80;;
48199;SDS011;33990;44.602;10.976;2023-02-20T06:55:03;12.73;;;10.55;;
48199;SDS011;33990;44.602;10.976;2023-02-20T06:57:31;12.25;;;10.45;;
48199;SDS011;33990;44.602;10.976;2023-02-20T06:59:58;11.75;;;10.52;;
48199;SDS011;33990;44.602;10.976;2023-02-20T07:02:26;12.00;;;10.70;;
48199;SDS011;33990;44.602;10.976;2023-02-20T07:04:53;12.85;;;11.15;;
48199;SDS011;33990;44.602;10.976;2023-02-20T07:07:20;11.05;;;9.90;;
48199;SDS011;33990;44.602;10.976;2023-02-20T07:09:48;13.93;;;11.50;;
48199;SDS011;33990;44.602;10.976;2023-02-20T07:12:15;11.23;;;10.02;;
48199;SDS011;33990;44.602;10.976;2023-02-20T07:14:42;11.98;;;10.57;;
48199;SDS011;33990;44.602;10.976;2023-02-20T07:17:10;13.00;;;11.35;;
48199;SDS011;33990;44.602;10.976;2023-02-20T07:19:37;14.30;;;11.35;;
48199;SDS011;33990;44.602;10.976;2023-02-20T07:22:05;13.43;;;11.40;;
48199;SDS011;33990;44.602;10.976;2023-02-20T07:24:32;12.80;;;11.48;;
48199;SDS011;33990;44.602;10.976;2023-02-20T07:27:02;12.25;;;10.98;;
48199;SDS011;33990;44.602;10.976;2023-02-20T07:29:29;11.50;;;10.30;;
48199;SDS011;33990;44.602;10.976;2023-02-20T07:31:56;11.77;;;10.38;;
48199;SDS011;33990;44.602;10.976;2023-02-20T07:34:24;12.93;;;10.60;;
48199;SDS011;33990;44.602;10.976;2023-02-20T07:36:51;12.50;;;10.70;;
48199;SDS011;33990;44.602;10.976;2023-02-20T07:39:19;12.38;;;11.10;;
48199;SDS011;33990;44.602;10.976;2023-02-20T07:41:49;20.50;;;18.00;;
48199;SDS011;33990;44.602;10.976;2023-02-20T07:44:52;23.60;;;20.98;;
48199;SDS011;33990;44.602;10.976;2023-02-20T07:47:19;16.40;;;14.13;;
48199;SDS011;33990;44.602;10.976;2023-02-20T07:49:46;18.25;;;13.43;;
48199;SDS011;33990;44.602;10.976;2023-02-20T07:52:14;24.65;;;19.55;;
48199;SDS011;33990;44.602;10.976;2023-02-20T07:54:41;21.88;;;17.90;;
48199;SDS011;33990;44.602;10.976;2023-02-20T07:57:09;21.88;;;18.38;;
48199;SDS011;33990;44.602;10.976;2023-02-20T07:59:36;26.73;;;20.63;;
48199;SDS011;33990;44.602;10.976;2023-02-20T08:02:04;20.13;;;15.00;;
48199;SDS011;33990;44.602;10.976;2023-02-20T08:04:31;21.30;;;17.30;;
48199;SDS011;33990;44.602;10.976;2023-02-20T08:06:58;20.85;;;18.00;;
48199;SDS011;33990;44.602;10.976;2023-02-20T08:09:26;27.15;;;20.65;;
48199;SDS011;33990;44.602;10.976;2023-02-20T08:11:53;28.05;;;20.98;;
48199;SDS011;33990;44.602;10.976;2023-02-20T08:14:21;30.38;;;25.10;;
48199;SDS011;33990;44.602;10.976;2023-02-20T08:16:49;27.70;;;22.80;;
48199;SDS011;33990;44.602;10.976;2023-02-20T08:19:16;27.40;;;22.35;;
48199;SDS011;33990;44.602;10.976;2023-02-20T08:21:43;28.83;;;22.73;;
48199;SDS011;33990;44.602;10.976;2023-02-20T08:24:11;28.67;;;22.25;;
48199;SDS011;33990;44.602;10.976;2023-02-20T08:26:43;26.60;;;23.35;;
48199;SDS011;33990;44.602;10.976;2023-02-20T08:29:11;23.83;;;19.88;;
48199;SDS011;33990;44.602;10.976;2023-02-20T08:31:39;28.85;;;23.95;;
48199;SDS011;33990;44.602;10.976;2023-02-20T08:34:07;22.90;;;19.48;;
48199;SDS011;33990;44.602;10.976;2023-02-20T08:36:35;21.33;;;18.35;;
48199;SDS011;33990;44.602;10.976;2023-02-20T08:39:02;19.08;;;15.35;;
48199;SDS011;33990;44.602;10.976;2023-02-20T08:41:30;18.52;;;14.32;;
48199;SDS011;33990;44.602;10.976;2023-02-20T08:43:57;19.02;;;14.95;;
48199;SDS011;33990;44.602;10.976;2023-02-20T08:46:24;17.55;;;14.23;;
48199;SDS011;33990;44.602;10.976;2023-02-20T08:48:52;17.33;;;14.00;;
48199;SDS011;33990;44.602;10.976;2023-02-20T08:51:20;17.23;;;13.77;;
48199;SDS011;33990;44.602;10.976;2023-02-20T08:53:47;16.00;;;14.07;;
48199;SDS011;33990;44.602;10.976;2023-02-20T08:56:18;18.65;;;15.52;;
48199;SDS011;33990;44.602;10.976;2023-02-20T08:58:47;17.77;;;14.48;;
48199;SDS011;33990;44.602;10.976;2023-02-20T09:01:14;16.80;;;13.57;;
48199;SDS011;33990;44.602;10.976;2023-02-20T09:03:42;13.95;;;12.55;;
48199;SDS011;33990;44.602;10.976;2023-02-20T09:06:09;21.02;;;13.55;;
48199;SDS011;33990;44.602;10.976;2023-02-20T09:08:37;17.10;;;13.70;;
48199;SDS011;33990;44.602;10.976;2023-02-20T09:11:05;16.27;;;11.63;;
48199;SDS011;33990;44.602;10.976;2023-02-20T09:13:42;13.98;;;11.98;;
48199;SDS011;33990;44.602;10.976;2023-02-20T09:16:14;13.20;;;11.10;;
48199;SDS011;33990;44.602;10.976;2023-02-20T09:18:44;14.02;;;11.18;;
48199;SDS011;33990;44.602;10.976;2023-02-20T09:21:13;15.13;;;11.93;;
48199;SDS011;33990;44.602;10.976;2023-02-20T09:23:44;14.10;;;11.35;;
48199;SDS011;33990;44.602;10.976;2023-02-20T09:26:12;13.07;;;11.05;;
48199;SDS011;33990;44.602;10.976;2023-02-20T09:28:40;11.55;;;10.15;;
48199;SDS011;33990;44.602;10.976;2023-02-20T09:31:07;13.70;;;11.55;;
48199;SDS011;33990;44.602;10.976;2023-02-20T09:33:35;16.02;;;11.02;;
48199;SDS011;33990;44.602;10.976;2023-02-20T09:36:02;13.45;;;10.93;;
48199;SDS011;33990;44.602;10.976;2023-02-20T09:38:30;13.77;;;11.00;;
48199;SDS011;33990;44.602;10.976;2023-02-20T09:40:57;12.90;;;11.60;;
48199;SDS011;33990;44.602;10.976;2023-02-20T09:43:44;12.68;;;11.07;;
48199;SDS011;33990;44.602;10.976;2023-02-20T09:46:22;16.40;;;12.88;;
48199;SDS011;33990;44.602;10.976;2023-02-20T09:51:55;15.43;;;10.90;;
48199;SDS011;33990;44.602;10.976;2023-02-20T09:54:34;12.38;;;11.05;;
48199;SDS011;33990;44.602;10.976;2023-02-20T09:57:08;12.43;;;10.15;;
48199;SDS011;33990;44.602;10.976;2023-02-20T09:59:40;13.98;;;11.80;;
48199;SDS011;33990;44.602;10.976;2023-02-20T10:04:57;12.85;;;11.20;;
48199;SDS011;33990;44.602;10.976;2023-02-20T10:07:31;13.15;;;11.63;;
48199;SDS011;33990;44.602;10.976;2023-02-20T10:10:09;14.18;;;10.95;;
48199;SDS011;33990;44.602;10.976;2023-02-20T10:12:55;15.13;;;12.43;;
48199;SDS011;33990;44.602;10.976;2023-02-20T10:15:44;15.15;;;11.23;;
48199;SDS011;33990;44.602;10.976;2023-02-20T10:18:43;14.18;;;11.55;;
48199;SDS011;33990;44.602;10.976;2023-02-20T10:28:05;12.05;;;10.80;;
48199;SDS011;33990;44.602;10.976;2023-02-20T10:30:09;14.25;;;12.73;;
48199;SDS011;33990;44.602;10.976;2023-02-20T10:32:42;13.68;;;11.52;;
48199;SDS011;33990;44.602;10.976;2023-02-20T10:35:16;12.85;;;11.00;;
48199;SDS011;33990;44.602;10.976;2023-02-20T10:37:53;13.95;;;12.35;;
48199;SDS011;33990;44.602;10.976;2023-02-20T10:48:41;14.80;;;13.18;;
48199;SDS011;33990;44.602;10.976;2023-02-20T10:51:13;16.30;;;13.48;;
48199;SDS011;33990;44.602;10.976;2023-02-20T10:53:58;19.30;;;13.23;;
48199;SDS011;33990;44.602;10.976;2023-02-20T10:56:32;14.75;;;12.80;;
48199;SDS011;33990;44.602;10.976;2023-02-20T10:59:24;16.70;;;13.85;;
48199;SDS011;33990;44.602;10.976;2023-02-20T11:01:57;13.07;;;11.63;;
48199;SDS011;33990;44.602;10.976;2023-02-20T11:04:28;18.02;;;13.82;;
48199;SDS011;33990;44.602;10.976;2023-02-20T11:07:11;17.00;;;12.40;;
48199;SDS011;33990;44.602;10.976;2023-02-20T11:09:41;15.15;;;11.63;;
48199;SDS011;33990;44.602;10.976;2023-02-20T11:12:17;19.83;;;13.90;;
48199;SDS011;33990;44.602;10.976;2023-02-20T11:14:52;13.98;;;11.05;;
48199;SDS011;33990;44.602;10.976;2023-02-20T11:17:24;16.42;;;12.52;;
48199;SDS011;33990;44.602;10.976;2023-02-20T11:19:56;17.65;;;14.93;;
48199;SDS011;33990;44.602;10.976;2023-02-20T11:22:43;15.85;;;13.57;;
48199;SDS011;33990;44.602;10.976;2023-02-20T11:25:19;17.48;;;13.82;;
48199;SDS011;33990;44.602;10.976;2023-02-20T11:28:40;14.43;;;12.07;;
48199;SDS011;33990;44.602;10.976;2023-02-20T11:30:57;16.50;;;12.98;;
48199;SDS011;33990;44.602;10.976;2023-02-20T11:33:29;15.77;;;12.43;;
48199;SDS011;33990;44.602;10.976;2023-02-20T11:36:11;15.07;;;12.75;;
48199;SDS011;33990;44.602;10.976;2023-02-20T11:38:47;14.40;;;11.18;;
48199;SDS011;33990;44.602;10.976;2023-02-20T11:46:31;13.38;;;10.27;;
48199;SDS011;33990;44.602;10.976;2023-02-20T11:49:04;18.00;;;12.90;;
48199;SDS011;33990;44.602;10.976;2023-02-20T11:51:43;15.38;;;13.23;;
48199;SDS011;33990;44.602;10.976;2023-02-20T11:59:47;16.70;;;12.57;;
48199;SDS011;33990;44.602;10.976;2023-02-20T12:04:44;16.38;;;13.23;;
48199;SDS011;33990;44.602;10.976;2023-02-20T12:07:27;14.00;;;11.90;;
48199;SDS011;33990;44.602;10.976;2023-02-20T12:10:15;15.52;;;11.88;;
48199;SDS011;33990;44.602;10.976;2023-02-20T12:12:45;15.93;;;11.75;;
48199;SDS011;33990;44.602;10.976;2023-02-20T12:15:16;18.08;;;12.38;;
48199;SDS011;33990;44.602;10.976;2023-02-20T12:17:49;16.42;;;12.45;;
48199;SDS011;33990;44.602;10.976;2023-02-20T12:20:25;15.27;;;12.15;;
48199;SDS011;33990;44.602;10.976;2023-02-20T12:31:05;13.35;;;10.23;;
48199;SDS011;33990;44.602;10.976;2023-02-20T12:36:30;13.98;;;10.93;;
48199;SDS011;33990;44.602;10.976;2023-02-20T12:47:38;14.10;;;10.30;;
48199;SDS011;33990;44.602;10.976;2023-02-20T12:55:56;12.80;;;10.07;;
48199;SDS011;33990;44.602;10.976;2023-02-20T12:58:34;13.82;;;10.15;;
48199;SDS011;33990;44.602;10.976;2023-02-20T13:01:13;14.13;;;11.15;;
48199;SDS011;33990;44.602;10.976;2023-02-20T13:07:06;16.02;;;11.32;;
48199;SDS011;33990;44.602;10.976;2023-02-20T13:10:00;14.93;;;11.93;;
48199;SDS011;33990;44.602;10.976;2023-02-20T13:12:32;14.18;;;10.18;;
48199;SDS011;33990;44.602;10.976;2023-02-20T13:15:11;13.95;;;10.98;;
48199;SDS011;33990;44.602;10.976;2023-02-20T13:20:44;15.32;;;10.43;;
48199;SDS011;33990;44.602;10.976;2023-02-20T13:23:26;14.82;;;10.15;;
48199;SDS011;33990;44.602;10.976;2023-02-20T13:25:55;11.70;;;9.48;;
48199;SDS011;33990;44.602;10.976;2023-02-20T13:31:07;13.82;;;10.25;;
48199;SDS011;33990;44.602;10.976;2023-02-20T13:33:49;13.95;;;10.80;;
48199;SDS011;33990;44.602;10.976;2023-02-20T13:36:41;13.57;;;10.45;;
48199;SDS011;33990;44.602;10.976;2023-02-20T13:44:38;13.50;;;11.45;;
48199;SDS011;33990;44.602;10.976;2023-02-20T13:52:38;12.93;;;10.30;;
48199;SDS011;33990;44.602;10.976;2023-02-20T14:00:16;12.45;;;9.85;;
48199;SDS011;33990;44.602;10.976;2023-02-20T14:02:46;11.30;;;8.45;;
48199;SDS011;33990;44.602;10.976;2023-02-20T14:05:31;12.98;;;9.57;;
48199;SDS011;33990;44.602;10.976;2023-02-20T14:07:59;10.90;;;9.57;;
48199;SDS011;33990;44.602;10.976;2023-02-20T14:10:28;10.75;;;9.07;;
48199;SDS011;33990;44.602;10.976;2023-02-20T14:13:13;12.10;;;9.25;;
48199;SDS011;33990;44.602;10.976;2023-02-20T14:15:50;13.30;;;9.73;;
48199;SDS011;33990;44.602;10.976;2023-02-20T14:18:24;11.00;;;9.13;;
48199;SDS011;33990;44.602;10.976;2023-02-20T14:23:35;14.27;;;10.13;;
48199;SDS011;33990;44.602;10.976;2023-02-20T14:26:05;13.07;;;10.02;;
48199;SDS011;33990;44.602;10.976;2023-02-20T14:28:57;11.32;;;9.73;;
48199;SDS011;33990;44.602;10.976;2023-02-20T14:31:35;10.20;;;7.93;;
48199;SDS011;33990;44.602;10.976;2023-02-20T14:34:08;12.05;;;9.15;;
48199;SDS011;33990;44.602;10.976;2023-02-20T14:41:52;13.05;;;9.57;;
48199;SDS011;33990;44.602;10.976;2023-02-20T14:44:22;11.82;;;9.18;;
48199;SDS011;33990;44.602;10.976;2023-02-20T14:46:54;10.63;;;9.43;;
48199;SDS011;33990;44.602;10.976;2023-02-20T14:49:27;10.85;;;9.63;;
48199;SDS011;33990;44.602;10.976;2023-02-20T14:52:04;12.43;;;9.60;;
48199;SDS011;33990;44.602;10.976;2023-02-20T14:54:31;11.18;;;9.18;;
48199;SDS011;33990;44.602;10.976;2023-02-20T14:56:59;11.00;;;8.23;;
48199;SDS011;33990;44.602;10.976;2023-02-20T14:59:30;11.27;;;8.13;;
48199;SDS011;33990;44.602;10.976;2023-02-20T15:05:00;10.35;;;8.70;;
48199;SDS011;33990;44.602;10.976;2023-02-20T15:07:31;13.83;;;9.33;;
48199;SDS011;33990;44.602;10.976;2023-02-20T15:09:59;12.50;;;9.32;;
48199;SDS011;33990;44.602;10.976;2023-02-20T15:12:33;11.05;;;9.05;;
48199;SDS011;33990;44.602;10.976;2023-02-20T15:17:37;12.30;;;8.80;;
48199;SDS011;33990;44.602;10.976;2023-02-20T15:20:19;13.73;;;9.93;;
48199;SDS011;33990;44.602;10.976;2023-02-20T15:25:41;11.02;;;9.63;;
48199;SDS011;33990;44.602;10.976;2023-02-20T15:31:29;12.55;;;9.68;;
48199;SDS011;33990;44.602;10.976;2023-02-20T15:33:39;12.10;;;9.30;;
48199;SDS011;33990;44.602;10.976;2023-02-20T15:36:14;11.07;;;9.13;;
48199;SDS011;33990;44.602;10.976;2023-02-20T15:38:44;10.85;;;8.77;;
48199;SDS011;33990;44.602;10.976;2023-02-20T15:41:11;11.98;;;10.05;;
48199;SDS011;33990;44.602;10.976;2023-02-20T15:43:39;11.38;;;9.05;;
48199;SDS011;33990;44.602;10.976;2023-02-20T15:46:15;11.25;;;8.88;;
48199;SDS011;33990;44.602;10.976;2023-02-20T15:48:44;12.00;;;9.18;;
48199;SDS011;33990;44.602;10.976;2023-02-20T15:51:12;10.50;;;8.85;;
48199;SDS011;33990;44.602;10.976;2023-02-20T15:53:43;12.55;;;8.85;;
48199;SDS011;33990;44.602;10.976;2023-02-20T15:56:12;11.75;;;9.70;;
48199;SDS011;33990;44.602;10.976;2023-02-20T15:58:40;11.65;;;8.65;;
48199;SDS011;33990;44.602;10.976;2023-02-20T16:01:09;11.52;;;9.10;;
48199;SDS011;33990;44.602;10.976;2023-02-20T16:03:37;11.23;;;8.88;;
48199;SDS011;33990;44.602;10.976;2023-02-20T16:06:18;12.43;;;9.02;;
48199;SDS011;33990;44.602;10.976;2023-02-20T16:08:49;12.65;;;9.93;;
48199;SDS011;33990;44.602;10.976;2023-02-20T16:11:18;13.18;;;9.32;;
48199;SDS011;33990;44.602;10.976;2023-02-20T16:13:51;10.98;;;8.15;;
48199;SDS011;33990;44.602;10.976;2023-02-20T16:16:43;11.10;;;8.82;;
48199;SDS011;33990;44.602;10.976;2023-02-20T16:19:15;14.98;;;10.15;;
48199;SDS011;33990;44.602;10.976;2023-02-20T16:21:45;11.80;;;10.20;;
48199;SDS011;33990;44.602;10.976;2023-02-20T16:24:24;12.07;;;9.95;;
48199;SDS011;33990;44.602;10.976;2023-02-20T16:26:52;11.88;;;8.35;;
48199;SDS011;33990;44.602;10.976;2023-02-20T16:29:21;12.23;;;9.02;;
48199;SDS011;33990;44.602;10.976;2023-02-20T16:34:27;13.68;;;9.57;;
48199;SDS011;33990;44.602;10.976;2023-02-20T16:36:59;14.70;;;10.38;;
48199;SDS011;33990;44.602;10.976;2023-02-20T16:39:27;10.85;;;9.65;;
48199;SDS011;33990;44.602;10.976;2023-02-20T16:41:55;12.57;;;9.68;;
48199;SDS011;33990;44.602;10.976;2023-02-20T16:44:34;13.60;;;9.45;;
48199;SDS011;33990;44.602;10.976;2023-02-20T16:47:13;11.13;;;9.65;;
48199;SDS011;33990;44.602;10.976;2023-02-20T16:49:42;11.40;;;8.63;;
48199;SDS011;33990;44.602;10.976;2023-02-20T16:55:00;12.90;;;10.02;;
48199;SDS011;33990;44.602;10.976;2023-02-20T16:57:28;14.43;;;9.45;;
48199;SDS011;33990;44.602;10.976;2023-02-20T16:59:57;18.00;;;10.27;;
48199;SDS011;33990;44.602;10.976;2023-02-20T17:02:27;13.80;;;9.15;;
48199;SDS011;33990;44.602;10.976;2023-02-20T17:04:57;12.93;;;9.60;;
48199;SDS011;33990;44.602;10.976;2023-02-20T17:07:25;12.77;;;9.05;;
48199;SDS011;33990;44.602;10.976;2023-02-20T17:09:53;18.13;;;10.15;;